Аэропорт: Угольный. Анадырь

ICAO: UHMA

METAR:
2018/07/16 20:00
UHMA 162000Z 11009G12MPS 9999 -RA BKN043 OVC080 13/10 Q1008 NOSIG RMK END R01/12006G09MPS QFE752/1003
METAR:
2018/07/16 18:21
TAF UHMA 161653Z 1618/1718 15006G11MPS 9999 SCT010 BKN023 
      TEMPO 1618/1715 12008G13MPS 2000 SHRA BR SCT005 BKN020CB 
      TEMPO 1715/1718 17007G12MPS 2000 BR SCT005 BKN020